TAY2263 LOWW-EBLG
Flight info
| Callsign | TAY2263 |
|---|---|
| Flight time | N/A |
| Altitude | 36000 |
| Route | BUWUT DCT DITIS DCT OKG L984 BAMTO/N0382F240 Z93 KOSEK Z104 GESLO |
| Aircraft | B738/M-SDE2E3FGHIRWXY/LB1 |
Departure
| Time | 2026-05-01 09:09 |
|---|---|
| Airport | Vienna International Airport (LOWW) |
Arrival
| Time | N/A |
|---|---|
| Airport | Liège Airport (EBLG) |
| Time | Latitude | Longitude | Altitude | Speed | Heading |
|---|---|---|---|---|---|
| 2026-05-01 08:46 | 48.12399 | 16.56930 | 608 ft | 0 kts | 26° |
| 2026-05-01 09:01 | 48.12396 | 16.56929 | 608 ft | 3 kts | 26° |
| 2026-05-01 09:02 | 48.12373 | 16.56911 | 608 ft | 4 kts | 29° |
| 2026-05-01 09:02 | 48.12350 | 16.56890 | 624 ft | 4 kts | 37° |
| 2026-05-01 09:02 | 48.12331 | 16.56863 | 613 ft | 4 kts | 64° |
| 2026-05-01 09:02 | 48.12328 | 16.56837 | 616 ft | 1 kts | 116° |
| 2026-05-01 09:04 | 48.12325 | 16.56848 | 608 ft | 6 kts | 116° |
| 2026-05-01 09:05 | 48.12282 | 16.56981 | 621 ft | 22 kts | 116° |
| 2026-05-01 09:05 | 48.12209 | 16.57201 | 616 ft | 23 kts | 115° |
| 2026-05-01 09:05 | 48.12108 | 16.57343 | 617 ft | 21 kts | 164° |
| 2026-05-01 09:05 | 48.11949 | 16.57410 | 613 ft | 27 kts | 163° |
| 2026-05-01 09:06 | 48.11772 | 16.57488 | 612 ft | 26 kts | 167° |
| 2026-05-01 09:06 | 48.11605 | 16.57556 | 608 ft | 24 kts | 164° |
| 2026-05-01 09:06 | 48.11449 | 16.57622 | 622 ft | 23 kts | 164° |
| 2026-05-01 09:06 | 48.11299 | 16.57683 | 620 ft | 22 kts | 172° |
| 2026-05-01 09:07 | 48.11177 | 16.57622 | 616 ft | 18 kts | 204° |
| 2026-05-01 09:07 | 48.11077 | 16.57634 | 615 ft | 14 kts | 153° |
| 2026-05-01 09:07 | 48.10985 | 16.57603 | 612 ft | 14 kts | 206° |
| 2026-05-01 09:07 | 48.10924 | 16.57514 | 615 ft | 13 kts | 283° |
| 2026-05-01 09:08 | 48.10951 | 16.57420 | 623 ft | 11 kts | 295° |
| 2026-05-01 09:08 | 48.11034 | 16.57165 | 613 ft | 57 kts | 296° |
| 2026-05-01 09:08 | 48.11312 | 16.56318 | 611 ft | 121 kts | 296° |
| 2026-05-01 09:08 | 48.11757 | 16.54945 | 653 ft | 167 kts | 295° |
| 2026-05-01 09:09 | 48.12233 | 16.53357 | 1364 ft | 161 kts | 295° |
| 2026-05-01 09:09 | 48.12461 | 16.51741 | 1999 ft | 168 kts | 257° |
| 2026-05-01 09:09 | 48.12105 | 16.50046 | 2519 ft | 181 kts | 254° |
| 2026-05-01 09:09 | 48.11712 | 16.48095 | 2784 ft | 209 kts | 255° |
| 2026-05-01 09:10 | 48.11601 | 16.45845 | 2971 ft | 228 kts | 281° |
| 2026-05-01 09:10 | 48.11921 | 16.43415 | 3156 ft | 249 kts | 281° |
| 2026-05-01 09:10 | 48.12225 | 16.40790 | 3619 ft | 260 kts | 280° |
| 2026-05-01 09:10 | 48.12522 | 16.38103 | 4426 ft | 263 kts | 280° |
| 2026-05-01 09:11 | 48.12815 | 16.35396 | 5273 ft | 265 kts | 280° |
| 2026-05-01 09:11 | 48.13107 | 16.32658 | 6054 ft | 269 kts | 280° |
| 2026-05-01 09:11 | 48.13400 | 16.29875 | 6843 ft | 272 kts | 280° |
| 2026-05-01 09:11 | 48.13692 | 16.27089 | 7559 ft | 277 kts | 280° |
| 2026-05-01 09:12 | 48.13993 | 16.24210 | 8287 ft | 282 kts | 281° |
| 2026-05-01 09:12 | 48.14606 | 16.21437 | 8985 ft | 283 kts | 305° |
| 2026-05-01 09:12 | 48.15997 | 16.19397 | 9700 ft | 281 kts | 330° |
| 2026-05-01 09:12 | 48.17735 | 16.18050 | 10381 ft | 285 kts | 336° |
| 2026-05-01 09:13 | 48.19603 | 16.16722 | 10570 ft | 309 kts | 337° |
| 2026-05-01 09:13 | 48.21609 | 16.15279 | 10820 ft | 329 kts | 336° |
| 2026-05-01 09:13 | 48.23693 | 16.13751 | 11390 ft | 337 kts | 336° |
| 2026-05-01 09:13 | 48.25805 | 16.12190 | 12170 ft | 339 kts | 336° |
| 2026-05-01 09:14 | 48.27897 | 16.10640 | 12878 ft | 342 kts | 336° |
| 2026-05-01 09:14 | 48.30040 | 16.09048 | 13560 ft | 346 kts | 336° |
| 2026-05-01 09:14 | 48.32206 | 16.07438 | 14273 ft | 349 kts | 336° |
| 2026-05-01 09:14 | 48.34390 | 16.05811 | 14953 ft | 353 kts | 336° |
| 2026-05-01 09:15 | 48.36603 | 16.04163 | 15654 ft | 356 kts | 336° |
| 2026-05-01 09:15 | 48.38832 | 16.02501 | 16373 ft | 359 kts | 336° |
| 2026-05-01 09:15 | 48.41083 | 16.00821 | 17038 ft | 363 kts | 336° |
| 2026-05-01 09:15 | 48.43358 | 15.99122 | 17696 ft | 367 kts | 336° |
| 2026-05-01 09:16 | 48.45658 | 15.97402 | 18317 ft | 371 kts | 336° |
| 2026-05-01 09:16 | 48.47982 | 15.95662 | 18948 ft | 375 kts | 337° |
| 2026-05-01 09:16 | 48.50292 | 15.93930 | 19575 ft | 377 kts | 337° |
| 2026-05-01 09:17 | 48.55029 | 15.90374 | 20759 ft | 384 kts | 336° |
| 2026-05-01 09:17 | 48.57261 | 15.88098 | 21278 ft | 395 kts | 318° |
| 2026-05-01 09:17 | 48.60522 | 15.81282 | 22410 ft | 405 kts | 307° |
| 2026-05-01 09:18 | 48.62084 | 15.77714 | 22883 ft | 409 kts | 307° |
| 2026-05-01 09:18 | 48.65251 | 15.70558 | 23880 ft | 414 kts | 308° |
| 2026-05-01 09:19 | 48.68511 | 15.63294 | 24803 ft | 420 kts | 308° |
| 2026-05-01 09:19 | 48.70155 | 15.59620 | 25236 ft | 424 kts | 307° |
| 2026-05-01 09:19 | 48.71692 | 15.55782 | 25661 ft | 428 kts | 303° |
| 2026-05-01 09:20 | 48.74546 | 15.47797 | 26508 ft | 433 kts | 302° |
| 2026-05-01 09:20 | 48.77431 | 15.39727 | 27312 ft | 438 kts | 302° |
| 2026-05-01 09:21 | 48.80372 | 15.31658 | 28032 ft | 442 kts | 303° |
| 2026-05-01 09:21 | 48.81998 | 15.27705 | 28378 ft | 442 kts | 309° |
| 2026-05-01 09:21 | 48.85686 | 15.20211 | 29072 ft | 445 kts | 310° |
| 2026-05-01 09:22 | 48.89359 | 15.12581 | 29706 ft | 450 kts | 309° |
| 2026-05-01 09:22 | 48.92954 | 15.04744 | 30327 ft | 454 kts | 308° |
| 2026-05-01 09:23 | 48.94714 | 15.00826 | 30611 ft | 455 kts | 308° |
| 2026-05-01 09:23 | 48.98272 | 14.92867 | 31383 ft | 453 kts | 308° |
| 2026-05-01 09:24 | 49.01806 | 14.84966 | 32138 ft | 451 kts | 308° |
| 2026-05-01 09:24 | 49.03571 | 14.81023 | 32461 ft | 450 kts | 308° |
| 2026-05-01 09:24 | 49.07089 | 14.73157 | 33175 ft | 448 kts | 308° |
| 2026-05-01 09:25 | 49.10564 | 14.65360 | 33799 ft | 447 kts | 308° |
| 2026-05-01 09:25 | 49.14050 | 14.57518 | 34410 ft | 446 kts | 307° |
| 2026-05-01 09:26 | 49.15787 | 14.53601 | 34693 ft | 446 kts | 307° |
| 2026-05-01 09:26 | 49.19254 | 14.45769 | 35286 ft | 444 kts | 307° |
| 2026-05-01 09:26 | 49.20978 | 14.41863 | 35536 ft | 444 kts | 307° |
| 2026-05-01 09:27 | 49.24405 | 14.34086 | 36074 ft | 443 kts | 307° |
| 2026-05-01 09:27 | 49.26121 | 14.30180 | 36345 ft | 442 kts | 307° |
| 2026-05-01 09:28 | 49.29574 | 14.22313 | 36426 ft | 447 kts | 307° |
| 2026-05-01 09:28 | 49.33034 | 14.14402 | 36426 ft | 445 kts | 307° |
| 2026-05-01 09:29 | 49.38130 | 14.02702 | 36443 ft | 440 kts | 307° |
| 2026-05-01 09:30 | 49.43216 | 13.90985 | 36441 ft | 439 kts | 306° |
| 2026-05-01 09:30 | 49.48284 | 13.79250 | 36442 ft | 439 kts | 306° |
| 2026-05-01 09:31 | 49.51636 | 13.71461 | 36454 ft | 440 kts | 306° |
| 2026-05-01 09:32 | 49.56700 | 13.59652 | 36457 ft | 441 kts | 306° |
| 2026-05-01 09:32 | 49.61771 | 13.47773 | 36453 ft | 443 kts | 306° |
| 2026-05-01 09:33 | 49.64577 | 13.41182 | 36462 ft | 443 kts | 306° |